Time;durP1;ratioP1;P1;durP2;ratioP2;P2;SDS_P1;SDS_P2;PMS_P1;PMS_P2;Temp;Humidity;BMP_temperature;BMP_pressure;BME280_temperature;BME280_humidity;BME280_pressure;Samples;Min_cycle;Max_cycle;Signal;HPM_P1;HPM_P2
2022/06/17 00:01:30;;;;;;;;;;;17.60;99.90;;;;;;10213472;28;84203;-55
2022/06/17 00:06:42;;;;;;;;;;;17.50;1.00;;;;;;10215607;28;84141;-53
2022/06/17 00:11:43;;;;;;;;;;;17.50;1.00;;;;;;10216022;28;84245;-56
2022/06/17 00:16:44;;;;;;;;;;;17.50;1.00;;;;;;10202425;28;86367;-56
2022/06/17 00:21:49;;;;;;;;;;;17.40;1.00;;;;;;10211836;28;84103;-54
2022/06/17 00:26:50;;;;;;;;;;;17.40;1.00;;;;;;10231502;22;85161;-46
2022/06/17 00:31:51;;;;;;;;;;;17.40;1.00;;;;;;10209422;28;85958;-50
2022/06/17 00:36:55;;;;;;;;;;;17.20;1.00;;;;;;10245865;28;85935;-52
2022/06/17 00:42:03;;;;;;;;;;;17.10;22.10;;;;;;10246513;28;85947;-48
2022/06/17 00:47:10;;;;;;;;;;;17.00;99.90;;;;;;10232105;28;87050;-48
2022/06/17 00:52:29;;;;;;;;;;;17.00;99.90;;;;;;10205477;28;84808;-46
2022/06/17 00:57:35;;;;;;;;;;;17.00;99.90;;;;;;10205187;28;86877;-46
2022/06/17 01:02:39;;;;;;;;;;;16.80;1.00;;;;;;10232145;28;85046;-45
2022/06/17 01:07:42;;;;;;;;;;;16.70;1.00;;;;;;10243872;28;83993;-47
2022/06/17 01:12:52;;;;;;;;;;;16.50;1.00;;;;;;10246284;28;84241;-48
2022/06/17 01:17:52;;;;;;;;;;;16.50;1.00;;;;;;10208482;28;86260;-45
2022/06/17 01:22:57;;;;;;;;;;;16.50;1.00;;;;;;10204561;28;86729;-46
2022/06/17 01:28:00;;;;;;;;;;;16.40;1.00;;;;;;10208878;28;86031;-49
2022/06/17 01:33:03;;;;;;;;;;;16.30;1.00;;;;;;10244214;28;86052;-47
2022/06/17 01:38:04;;;;;;;;;;;16.30;1.00;;;;;;10245919;28;84110;-46
2022/06/17 01:43:08;;;;;;;;;;;16.30;1.00;;;;;;10231831;28;84969;-46
2022/06/17 01:48:09;;;;;;;;;;;16.20;1.00;;;;;;10204149;28;85908;-45
2022/06/17 01:53:13;;;;;;;;;;;16.20;1.00;;;;;;10205023;28;85950;-46
2022/06/17 01:58:18;;;;;;;;;;;16.20;1.00;;;;;;10203479;28;86636;-49
2022/06/17 02:03:22;;;;;;;;;;;16.20;1.00;;;;;;10203696;28;87199;-48
2022/06/17 02:08:22;;;;;;;;;;;16.10;1.00;;;;;;10203311;28;86791;-47
2022/06/17 02:13:23;;;;;;;;;;;16.00;1.00;;;;;;10204630;28;84699;-47
2022/06/17 02:18:47;;;;;;;;;;;16.00;1.00;;;;;;10224898;28;85814;-47
2022/06/17 02:23:48;;;;;;;;;;;16.00;1.00;;;;;;10255372;28;86112;-46
2022/06/17 02:28:49;;;;;;;;;;;15.90;1.00;;;;;;10256169;28;86592;-46
2022/06/17 02:33:51;;;;;;;;;;;15.90;1.00;;;;;;10255878;28;84841;-47
2022/06/17 02:38:53;;;;;;;;;;;15.80;1.00;;;;;;10256476;28;85990;-49
2022/06/17 02:43:59;;;;;;;;;;;15.70;1.00;;;;;;10255693;28;85977;-47
2022/06/17 02:49:25;;;;;;;;;;;15.70;1.00;;;;;;10256093;28;86709;-46
2022/06/17 02:54:31;;;;;;;;;;;15.70;1.00;;;;;;10222648;28;86066;-47
2022/06/17 02:59:36;;;;;;;;;;;15.60;1.00;;;;;;10257074;28;84038;-45
2022/06/17 03:04:39;;;;;;;;;;;15.60;1.00;;;;;;10238923;28;87275;-53
2022/06/17 03:09:40;;;;;;;;;;;15.50;1.00;;;;;;10239206;28;86237;-49
2022/06/17 03:14:46;;;;;;;;;;;15.50;1.00;;;;;;10253792;28;84572;-46
2022/06/17 03:19:47;;;;;;;;;;;15.40;1.00;;;;;;10238021;28;85034;-50
2022/06/17 03:25:01;;;;;;;;;;;15.40;1.00;;;;;;10234581;28;85110;-48
2022/06/17 03:30:03;;;;;;;;;;;15.40;1.00;;;;;;10224395;28;85125;-45
2022/06/17 03:35:05;;;;;;;;;;;15.30;1.00;;;;;;10244653;28;85881;-46
2022/06/17 03:40:13;;;;;;;;;;;15.20;1.00;;;;;;10243315;28;87120;-46
2022/06/17 03:45:26;;;;;;;;;;;15.10;1.00;;;;;;10207570;28;86810;-47
2022/06/17 03:50:28;;;;;;;;;;;15.10;1.00;;;;;;10207748;28;86735;-46
2022/06/17 03:55:29;;;;;;;;;;;15.20;1.00;;;;;;10206884;28;85877;-46
2022/06/17 04:00:36;;;;;;;;;;;15.10;1.00;;;;;;10245938;28;86053;-46
2022/06/17 04:05:38;;;;;;;;;;;14.90;1.00;;;;;;10229520;28;85600;-48
2022/06/17 04:10:39;;;;;;;;;;;14.70;1.00;;;;;;10206990;28;86861;-49
2022/06/17 04:15:59;;;;;;;;;;;14.80;1.00;;;;;;10206673;28;86722;-47
2022/06/17 04:21:01;;;;;;;;;;;15.00;1.00;;;;;;10233125;28;85595;-46
2022/06/17 04:26:02;;;;;;;;;;;15.10;1.00;;;;;;10246705;28;86597;-52
2022/06/17 04:31:06;;;;;;;;;;;15.30;1.00;;;;;;10247093;28;86777;-49
2022/06/17 04:36:14;;;;;;;;;;;15.60;1.00;;;;;;10245556;28;85950;-48
2022/06/17 04:41:16;;;;;;;;;;;15.80;1.00;;;;;;10228120;28;86101;-47
2022/06/17 04:46:30;;;;;;;;;;;16.00;1.00;;;;;;10233310;28;86466;-51
2022/06/17 04:51:32;;;;;;;;;;;16.20;1.00;;;;;;10219603;28;86973;-53
2022/06/17 04:56:36;;;;;;;;;;;16.50;1.00;;;;;;10206807;28;84308;-49
2022/06/17 05:01:49;;;;;;;;;;;16.50;1.00;;;;;;10204421;28;86882;-55
2022/06/17 05:07:10;;;;;;;;;;;16.40;1.00;;;;;;10211318;28;86051;-48
2022/06/17 05:12:15;;;;;;;;;;;16.30;1.00;;;;;;10218082;28;86808;-49
2022/06/17 05:17:15;;;;;;;;;;;16.30;1.00;;;;;;10203371;28;86008;-49
2022/06/17 05:22:22;;;;;;;;;;;16.50;1.00;;;;;;10203167;28;85704;-48
2022/06/17 05:27:23;;;;;;;;;;;16.60;1.00;;;;;;10211909;28;86011;-48
2022/06/17 05:32:25;;;;;;;;;;;16.80;1.00;;;;;;10203445;28;85972;-51
2022/06/17 05:37:25;;;;;;;;;;;17.30;1.00;;;;;;10203418;28;86782;-48
2022/06/17 05:42:32;;;;;;;;;;;17.50;99.90;;;;;;10207755;28;86783;-47
2022/06/17 05:47:33;;;;;;;;;;;17.80;99.90;;;;;;10186769;28;86786;-47
2022/06/17 05:53:05;;;;;;;;;;;18.00;99.90;;;;;;10197778;28;84709;-47
2022/06/17 05:58:25;;;;;;;;;;;18.30;27.10;;;;;;10206323;28;86908;-50
2022/06/17 06:03:28;;;;;;;;;;;18.60;1.00;;;;;;10202156;28;87013;-49
2022/06/17 06:08:33;;;;;;;;;;;19.00;1.00;;;;;;10216938;28;85983;-48
2022/06/17 06:13:34;;;;;;;;;;;19.50;1.00;;;;;;10199111;28;86643;-53
2022/06/17 06:18:36;;;;;;;;;;;19.80;99.90;;;;;;10204702;28;86940;-49
2022/06/17 06:24:06;;;;;;;;;;;20.20;1.00;;;;;;10224727;22;85915;-50
2022/06/17 06:29:08;;;;;;;;;;;20.40;1.00;;;;;;10240824;28;86514;-52
2022/06/17 06:34:13;;;;;;;;;;;20.50;1.00;;;;;;10235268;28;86012;-54
2022/06/17 06:39:16;;;;;;;;;;;20.50;12.70;;;;;;10224107;28;86834;-53
2022/06/17 06:44:17;;;;;;;;;;;20.60;99.90;;;;;;10222668;28;85982;-54
2022/06/17 06:49:40;;;;;;;;;;;20.60;99.90;;;;;;10216757;28;87138;-56
2022/06/17 06:54:41;;;;;;;;;;;20.60;1.00;;;;;;10196359;28;86893;-53
2022/06/17 06:59:42;;;;;;;;;;;20.80;1.00;;;;;;10194826;28;85026;-54
2022/06/17 07:04:43;;;;;;;;;;;21.10;1.00;;;;;;10198679;28;86107;-59
2022/06/17 07:09:44;;;;;;;;;;;21.30;99.90;;;;;;10198265;28;85996;-59
2022/06/17 07:14:44;;;;;;;;;;;21.50;1.00;;;;;;10203877;28;84928;-56
2022/06/17 07:19:45;;;;;;;;;;;21.70;99.90;;;;;;10207952;28;85990;-61
2022/06/17 07:24:49;;;;;;;;;;;21.80;1.00;;;;;;10218455;28;84916;-62
2022/06/17 07:29:49;;;;;;;;;;;21.50;99.90;;;;;;10222085;28;84446;-60
2022/06/17 07:34:50;;;;;;;;;;;21.70;1.00;;;;;;10206961;28;84320;-59
2022/06/17 07:39:53;;;;;;;;;;;21.80;99.90;;;;;;10205261;28;84073;-60
2022/06/17 07:44:54;;;;;;;;;;;21.90;1.00;;;;;;10207469;28;84191;-62
2022/06/17 07:49:54;;;;;;;;;;;22.10;99.90;;;;;;10212555;28;84127;-66
2022/06/17 07:54:55;;;;;;;;;;;22.10;1.00;;;;;;10200513;28;86075;-67
2022/06/17 07:59:55;;;;;;;;;;;21.90;99.90;;;;;;10210954;28;84600;-68
2022/06/17 08:04:56;;;;;;;;;;;22.40;1.00;;;;;;10191841;28;84926;-67
2022/06/17 08:09:56;;;;;;;;;;;22.80;1.00;;;;;;10183307;28;84260;-67
2022/06/17 08:14:57;;;;;;;;;;;23.10;1.00;;;;;;10203743;28;84214;-66
2022/06/17 08:19:58;;;;;;;;;;;24.40;1.00;;;;;;10207746;28;84213;-67
2022/06/17 08:24:58;;;;;;;;;;;25.20;1.00;;;;;;10195029;28;84386;-64
2022/06/17 08:29:59;;;;;;;;;;;25.80;1.00;;;;;;10203706;28;84924;-63
2022/06/17 08:34:59;;;;;;;;;;;26.60;1.00;;;;;;10207112;28;84304;-63
2022/06/17 08:40:00;;;;;;;;;;;27.50;99.90;;;;;;10195866;28;84462;-64
2022/06/17 08:45:30;;;;;;;;;;;27.80;94.80;;;;;;10202846;28;84709;-65
2022/06/17 08:50:31;;;;;;;;;;;28.00;1.00;;;;;;10189912;28;84053;-65
2022/06/17 08:55:44;;;;;;;;;;;28.50;1.00;;;;;;10207516;28;84840;-64
2022/06/17 09:01:03;;;;;;;;;;;28.60;1.00;;;;;;10207934;28;85012;-65
2022/06/17 09:06:04;;;;;;;;;;;28.90;1.00;;;;;;10208437;28;84007;-65
2022/06/17 09:11:13;;;;;;;;;;;29.60;1.00;;;;;;10207752;28;85478;-65
2022/06/17 09:16:33;;;;;;;;;;;29.50;1.00;;;;;;10207551;28;84008;-65
2022/06/17 09:21:36;;;;;;;;;;;30.00;1.00;;;;;;10176982;28;84126;-65
2022/06/17 09:26:50;;;;;;;;;;;30.70;1.00;;;;;;10188482;28;85115;-65
2022/06/17 09:32:03;;;;;;;;;;;31.10;1.00;;;;;;10206599;28;84070;-66
2022/06/17 09:37:08;;;;;;;;;;;30.80;1.00;;;;;;10206677;28;84336;-64
2022/06/17 09:42:10;;;;;;;;;;;31.60;1.00;;;;;;10204329;28;84803;-64
2022/06/17 09:47:17;;;;;;;;;;;31.80;1.00;;;;;;10205755;28;84197;-65
2022/06/17 09:52:39;;;;;;;;;;;32.20;1.00;;;;;;10205370;28;85126;-66
2022/06/17 09:57:43;;;;;;;;;;;32.70;1.00;;;;;;10204807;28;84146;-65
2022/06/17 10:02:49;;;;;;;;;;;33.20;1.00;;;;;;10208035;28;84642;-65
2022/06/17 10:07:53;;;;;;;;;;;33.00;1.00;;;;;;10203463;28;85713;-66
2022/06/17 10:13:05;;;;;;;;;;;33.20;1.00;;;;;;10205411;28;84024;-64
2022/06/17 10:18:33;;;;;;;;;;;33.90;1.00;;;;;;10206251;28;84328;-66
2022/06/17 10:23:54;;;;;;;;;;;34.30;99.90;;;;;;10196840;28;84666;-65
2022/06/17 10:29:02;;;;;;;;;;;33.60;99.90;;;;;;10194561;28;84925;-65
2022/06/17 10:34:06;;;;;;;;;;;32.70;99.90;;;;;;10208806;28;84138;-65
2022/06/17 10:39:10;;;;;;;;;;;32.20;99.90;;;;;;10211586;28;84074;-65
2022/06/17 10:44:15;;;;;;;;;;;32.50;99.90;;;;;;10218992;28;85498;-64
2022/06/17 10:49:21;;;;;;;;;;;31.70;99.90;;;;;;10230961;28;84026;-64
2022/06/17 10:54:25;;;;;;;;;;;32.90;99.90;;;;;;10189717;28;84023;-65
2022/06/17 10:59:30;;;;;;;;;;;33.30;99.90;;;;;;10204889;28;86659;-64
2022/06/17 11:04:35;;;;;;;;;;;34.10;99.90;;;;;;10211263;28;86180;-65
2022/06/17 11:09:45;;;;;;;;;;;34.60;99.90;;;;;;10220072;28;85023;-66
2022/06/17 11:14:45;;;;;;;;;;;34.40;99.90;;;;;;10219461;28;85381;-65
2022/06/17 11:19:48;;;;;;;;;;;34.10;99.90;;;;;;10203248;28;86060;-65
2022/06/17 11:24:53;;;;;;;;;;;33.40;99.90;;;;;;10219146;28;84303;-65
2022/06/17 11:29:54;;;;;;;;;;;31.90;99.90;;;;;;10217968;28;85114;-65
2022/06/17 11:34:56;;;;;;;;;;;30.90;99.90;;;;;;10217689;28;86370;-66
2022/06/17 11:40:15;;;;;;;;;;;30.50;99.90;;;;;;10216826;28;85733;-64
2022/06/17 11:45:18;;;;;;;;;;;30.10;99.90;;;;;;10213787;28;84226;-67
2022/06/17 11:50:21;;;;;;;;;;;30.00;99.90;;;;;;10212391;28;84924;-66
2022/06/17 11:55:29;;;;;;;;;;;29.70;99.90;;;;;;10220479;28;85236;-66
2022/06/17 12:00:46;;;;;;;;;;;29.20;99.90;;;;;;10211485;28;84524;-65
2022/06/17 12:06:00;;;;;;;;;;;29.20;99.90;;;;;;10210215;28;86012;-63
2022/06/17 12:11:05;;;;;;;;;;;29.70;99.90;;;;;;10207089;28;84286;-63
2022/06/17 12:16:14;;;;;;;;;;;29.90;99.90;;;;;;10213832;28;85710;-63
2022/06/17 12:21:33;;;;;;;;;;;29.90;99.90;;;;;;10217490;28;84150;-63
2022/06/17 12:26:36;;;;;;;;;;;30.40;99.90;;;;;;10247205;22;84274;-52
2022/06/17 12:31:50;;;;;;;;;;;30.10;99.90;;;;;;10247883;28;84902;-54
2022/06/17 12:36:56;;;;;;;;;;;30.50;99.90;;;;;;10234538;28;84706;-53
2022/06/17 12:41:57;;;;;;;;;;;30.50;99.90;;;;;;10194385;28;84367;-52
2022/06/17 12:47:11;;;;;;;;;;;30.60;99.90;;;;;;10186444;28;84558;-52
2022/06/17 12:57:50;;;;;;;;;;;32.50;99.90;;;;;;10189410;28;85527;-53
2022/06/17 13:03:17;;;;;;;;;;;32.10;99.90;;;;;;10195252;28;84944;-54
2022/06/17 13:08:36;;;;;;;;;;;32.00;99.90;;;;;;10188421;28;85145;-51
2022/06/17 13:13:40;;;;;;;;;;;32.30;99.90;;;;;;10205497;28;84285;-52
2022/06/17 13:18:55;;;;;;;;;;;32.50;99.90;;;;;;10207294;28;85116;-55
2022/06/17 13:24:03;;;;;;;;;;;32.30;99.90;;;;;;10196393;28;85007;-55
2022/06/17 13:29:11;;;;;;;;;;;31.90;99.90;;;;;;10211825;28;86333;-54
2022/06/17 13:34:24;;;;;;;;;;;31.40;99.90;;;;;;10205531;28;84132;-52
2022/06/17 13:39:27;;;;;;;;;;;31.50;99.90;;;;;;10222592;28;84358;-54
2022/06/17 13:44:40;;;;;;;;;;;31.80;99.90;;;;;;10215033;28;84210;-50
2022/06/17 13:49:45;;;;;;;;;;;31.20;99.90;;;;;;10204402;28;84515;-58
2022/06/17 13:54:46;;;;;;;;;;;32.30;99.90;;;;;;10219454;28;85686;-54
2022/06/17 13:59:49;;;;;;;;;;;32.50;99.90;;;;;;10224266;28;84284;-53
2022/06/17 14:04:59;;;;;;;;;;;31.70;99.90;;;;;;10215141;28;84818;-48
2022/06/17 14:10:20;;;;;;;;;;;32.00;99.90;;;;;;10204238;28;84097;-50
2022/06/17 14:15:28;;;;;;;;;;;31.60;99.90;;;;;;10215751;28;84237;-51
2022/06/17 14:20:39;;;;;;;;;;;31.30;99.90;;;;;;10231076;28;84843;-54
2022/06/17 14:25:59;;;;;;;;;;;31.40;99.90;;;;;;10226627;28;84791;-52
2022/06/17 14:31:29;;;;;;;;;;;31.10;99.90;;;;;;10228464;28;84136;-52
2022/06/17 14:36:51;;;;;;;;;;;30.40;99.90;;;;;;10225940;28;84271;-53
2022/06/17 14:42:04;;;;;;;;;;;30.40;99.90;;;;;;10226928;28;84901;-50
2022/06/17 14:47:29;;;;;;;;;;;30.60;99.90;;;;;;10221128;28;84262;-55
2022/06/17 14:52:32;;;;;;;;;;;30.30;99.90;;;;;;10197680;28;85033;-51
2022/06/17 14:57:44;;;;;;;;;;;30.00;99.90;;;;;;10214986;28;84346;-54
2022/06/17 15:02:45;;;;;;;;;;;30.00;99.90;;;;;;10199233;28;85591;-53
2022/06/17 15:07:49;;;;;;;;;;;30.00;99.90;;;;;;10197859;28;84268;-54
2022/06/17 15:12:55;;;;;;;;;;;30.00;99.90;;;;;;10204253;28;84266;-52
2022/06/17 15:17:59;;;;;;;;;;;30.10;99.90;;;;;;10207925;28;84880;-51
2022/06/17 15:23:05;;;;;;;;;;;30.20;99.90;;;;;;10187166;28;84968;-52
2022/06/17 15:28:17;;;;;;;;;;;30.10;99.90;;;;;;10206746;28;84234;-48
2022/06/17 15:33:18;;;;;;;;;;;29.90;99.90;;;;;;10210719;28;84337;-50
2022/06/17 15:38:28;;;;;;;;;;;29.70;99.90;;;;;;10212917;28;84980;-48
2022/06/17 15:43:28;;;;;;;;;;;29.70;99.90;;;;;;10205967;28;84941;-50
2022/06/17 15:48:29;;;;;;;;;;;29.70;99.90;;;;;;10211456;28;85384;-52
2022/06/17 15:53:37;;;;;;;;;;;29.80;99.90;;;;;;10194895;28;84876;-60
2022/06/17 15:58:40;;;;;;;;;;;29.80;99.90;;;;;;10209011;28;85694;-51
2022/06/17 16:03:51;;;;;;;;;;;29.90;99.90;;;;;;10210471;28;85046;-54
2022/06/17 16:08:52;;;;;;;;;;;29.70;99.90;;;;;;10219839;28;84193;-48
2022/06/17 16:13:54;;;;;;;;;;;29.60;99.90;;;;;;10224595;28;84355;-46
2022/06/17 16:19:14;;;;;;;;;;;29.60;99.90;;;;;;10230333;28;84927;-58
2022/06/17 16:24:15;;;;;;;;;;;29.90;99.90;;;;;;10202897;28;85357;-47
2022/06/17 16:29:24;;;;;;;;;;;29.80;99.90;;;;;;10211658;28;84348;-52
2022/06/17 16:34:24;;;;;;;;;;;29.50;99.90;;;;;;10207625;28;85030;-49
2022/06/17 16:39:27;;;;;;;;;;;29.30;99.90;;;;;;10208163;28;84135;-48
2022/06/17 16:44:28;;;;;;;;;;;29.30;99.90;;;;;;10203963;28;84144;-47
2022/06/17 16:49:33;;;;;;;;;;;29.30;99.90;;;;;;10203317;28;84156;-48
2022/06/17 16:54:35;;;;;;;;;;;29.10;99.90;;;;;;10202903;28;84822;-47
2022/06/17 16:59:35;;;;;;;;;;;28.90;99.90;;;;;;10205410;28;84840;-48
2022/06/17 17:04:36;;;;;;;;;;;28.90;99.90;;;;;;10206579;28;84943;-47
2022/06/17 17:09:36;;;;;;;;;;;28.80;99.90;;;;;;10206629;28;84168;-47
2022/06/17 17:14:37;;;;;;;;;;;28.80;99.90;;;;;;10215511;28;85176;-47
2022/06/17 17:19:37;;;;;;;;;;;28.90;99.90;;;;;;10244445;28;85912;-47
2022/06/17 17:24:41;;;;;;;;;;;28.70;99.90;;;;;;10244561;28;85164;-47
2022/06/17 17:29:41;;;;;;;;;;;28.70;99.90;;;;;;10246048;28;84023;-47
2022/06/17 17:34:45;;;;;;;;;;;28.70;99.90;;;;;;10245203;28;85503;-49
2022/06/17 17:39:46;;;;;;;;;;;28.60;99.90;;;;;;10245436;28;84181;-47
2022/06/17 17:44:46;;;;;;;;;;;28.50;99.90;;;;;;10208438;28;84256;-48
2022/06/17 17:49:47;;;;;;;;;;;28.50;99.90;;;;;;10207841;28;84222;-51
2022/06/17 17:54:47;;;;;;;;;;;28.40;99.90;;;;;;10240363;28;84851;-46
2022/06/17 17:59:48;;;;;;;;;;;28.30;99.90;;;;;;10224409;28;84802;-48
2022/06/17 18:04:49;;;;;;;;;;;28.20;99.90;;;;;;10217310;28;85305;-51
2022/06/17 18:09:50;;;;;;;;;;;28.10;99.90;;;;;;10199075;28;84901;-51
2022/06/17 18:14:50;;;;;;;;;;;28.00;99.90;;;;;;10183022;28;84659;-46
2022/06/17 18:19:51;;;;;;;;;;;27.90;99.90;;;;;;10193539;28;84304;-50
2022/06/17 18:24:52;;;;;;;;;;;27.90;99.90;;;;;;10214895;22;84355;-53
2022/06/17 18:29:52;;;;;;;;;;;27.70;99.90;;;;;;10243673;28;84981;-55
2022/06/17 18:34:53;;;;;;;;;;;27.60;99.90;;;;;;10246212;28;85460;-52
2022/06/17 18:39:54;;;;;;;;;;;27.60;99.90;;;;;;10238451;28;84910;-52
2022/06/17 18:44:55;;;;;;;;;;;27.40;99.90;;;;;;10254470;28;84223;-50
2022/06/17 18:49:57;;;;;;;;;;;27.30;99.90;;;;;;10266044;28;84779;-54
2022/06/17 18:55:00;;;;;;;;;;;27.20;99.90;;;;;;10252007;28;84060;-52
2022/06/17 19:00:04;;;;;;;;;;;27.10;99.90;;;;;;10270829;28;85018;-53
2022/06/17 19:05:08;;;;;;;;;;;27.00;99.90;;;;;;10261921;28;84881;-51
2022/06/17 19:20:50;;;;;;;;;;;26.60;99.90;;;;;;10255951;28;84289;-52
2022/06/17 19:25:54;;;;;;;;;;;26.50;99.90;;;;;;10249198;28;84633;-57
2022/06/17 19:30:56;;;;;;;;;;;26.40;1.00;;;;;;10233442;28;84928;-49
2022/06/17 19:36:00;;;;;;;;;;;26.30;1.00;;;;;;10229043;28;85085;-51
2022/06/17 19:46:20;;;;;;;;;;;26.00;1.00;;;;;;10230751;28;84009;-52
2022/06/17 19:51:21;;;;;;;;;;;25.90;1.00;;;;;;10230246;28;85115;-50
2022/06/17 19:56:27;;;;;;;;;;;25.70;1.00;;;;;;10228628;28;86514;-49
2022/06/17 20:01:29;;;;;;;;;;;25.60;1.00;;;;;;10225831;28;85182;-53
2022/06/17 20:06:30;;;;;;;;;;;25.50;1.00;;;;;;10229629;28;84816;-53
2022/06/17 20:11:30;;;;;;;;;;;25.20;1.00;;;;;;10229341;28;84998;-54
2022/06/17 20:16:33;;;;;;;;;;;25.10;1.00;;;;;;10227895;28;84863;-55
2022/06/17 20:21:34;;;;;;;;;;;25.00;1.00;;;;;;10228623;28;85619;-53
2022/06/17 20:26:35;;;;;;;;;;;24.90;1.00;;;;;;10228432;28;84252;-53
2022/06/17 20:31:35;;;;;;;;;;;24.80;1.00;;;;;;10228862;28;84909;-49
2022/06/17 20:36:36;;;;;;;;;;;24.70;99.90;;;;;;10228267;28;84435;-49
2022/06/17 20:41:36;;;;;;;;;;;24.60;99.90;;;;;;10227549;28;84125;-54
2022/06/17 20:51:57;;;;;;;;;;;24.30;99.90;;;;;;10229540;28;84745;-52
2022/06/17 21:02:17;;;;;;;;;;;24.20;99.90;;;;;;10246739;28;84995;-55
2022/06/17 21:07:21;;;;;;;;;;;24.10;99.90;;;;;;10246509;28;85375;-56
2022/06/17 21:12:22;;;;;;;;;;;24.00;1.00;;;;;;10223902;28;85275;-52
2022/06/17 21:17:22;;;;;;;;;;;23.80;1.00;;;;;;10245812;28;84749;-51
2022/06/17 21:22:24;;;;;;;;;;;23.80;1.00;;;;;;10246599;28;84877;-53
2022/06/17 21:27:24;;;;;;;;;;;23.70;1.00;;;;;;10248270;28;84361;-54
2022/06/17 21:32:26;;;;;;;;;;;23.60;1.00;;;;;;10247487;28;84883;-56
2022/06/17 21:37:27;;;;;;;;;;;23.50;1.00;;;;;;10245324;28;84886;-50
2022/06/17 21:42:27;;;;;;;;;;;23.40;99.90;;;;;;10240746;28;85962;-52
2022/06/17 21:47:28;;;;;;;;;;;23.30;99.90;;;;;;10247336;28;85195;-57
2022/06/17 21:52:28;;;;;;;;;;;23.20;1.00;;;;;;10243577;28;84823;-51
2022/06/17 21:57:29;;;;;;;;;;;23.10;1.00;;;;;;10245962;28;85082;-54
2022/06/17 22:02:33;;;;;;;;;;;22.90;99.90;;;;;;10245826;28;84913;-52
2022/06/17 22:07:33;;;;;;;;;;;22.90;1.00;;;;;;10243262;28;85406;-54
2022/06/17 22:12:34;;;;;;;;;;;22.70;1.00;;;;;;10243750;28;84782;-49
2022/06/17 22:17:34;;;;;;;;;;;22.60;99.90;;;;;;10241558;28;84255;-52
2022/06/17 22:22:38;;;;;;;;;;;22.50;1.00;;;;;;10244191;28;85761;-49
2022/06/17 22:27:38;;;;;;;;;;;22.40;1.00;;;;;;10243899;28;84137;-51
2022/06/17 22:32:40;;;;;;;;;;;22.30;99.90;;;;;;10246630;28;84243;-54
2022/06/17 22:37:41;;;;;;;;;;;22.20;1.00;;;;;;10224447;28;84104;-56
2022/06/17 22:42:42;;;;;;;;;;;22.20;13.00;;;;;;10210910;28;84765;-50
2022/06/17 22:47:44;;;;;;;;;;;22.00;1.00;;;;;;10210778;28;84666;-51
2022/06/17 22:52:45;;;;;;;;;;;22.00;1.00;;;;;;10212108;28;84821;-53
2022/06/17 22:57:46;;;;;;;;;;;21.90;99.90;;;;;;10210518;28;84818;-54
2022/06/17 23:02:48;;;;;;;;;;;21.80;1.00;;;;;;10210296;28;84805;-49
2022/06/17 23:07:49;;;;;;;;;;;21.80;1.00;;;;;;10210213;28;84181;-51
2022/06/17 23:12:51;;;;;;;;;;;21.70;1.00;;;;;;10210324;28;84582;-50
2022/06/17 23:23:15;;;;;;;;;;;21.70;1.00;;;;;;10209595;28;84430;-51
2022/06/17 23:28:17;;;;;;;;;;;21.70;1.00;;;;;;10240259;28;84822;-50
2022/06/17 23:33:19;;;;;;;;;;;21.80;1.00;;;;;;10249381;28;84962;-52
2022/06/17 23:38:21;;;;;;;;;;;21.80;1.00;;;;;;10240443;28;84205;-52
2022/06/17 23:43:24;;;;;;;;;;;21.80;99.90;;;;;;10208710;28;84339;-50
2022/06/17 23:48:28;;;;;;;;;;;21.90;99.90;;;;;;10207439;28;84191;-50
2022/06/17 23:53:30;;;;;;;;;;;21.90;99.90;;;;;;10227348;28;85385;-51
2022/06/17 23:58:57;;;;;;;;;;;21.80;99.90;;;;;;10248843;28;85029;-54
